Time;durP1;ratioP1;P1;durP2;ratioP2;P2;SDS_P1;SDS_P2;PMS_P1;PMS_P2;Temp;Humidity;BMP_temperature;BMP_pressure;BME280_temperature;BME280_humidity;BME280_pressure;Samples;Min_cycle;Max_cycle;Signal;HPM_P1;HPM_P2
2022/05/04 00:01:02;;;;;;;;;;;;;;;14.87;72.51;99550.75;4884120;29;19923;-69
2022/05/04 00:03:30;;;;;;;;;;;;;;;14.87;72.68;99552.47;4867082;29;19923;-69
2022/05/04 00:05:59;;;;;;;;;;;;;;;14.87;72.44;99555.03;4883425;29;19931;-69
2022/05/04 00:08:27;;;;;;;;;;;;;;;14.87;72.17;99552.47;4882236;29;19927;-69
2022/05/04 00:10:56;;;;;;;;;;;;;;;14.83;72.14;99550.84;4883637;29;19927;-69
2022/05/04 00:13:25;;;;;;;;;;;;;;;14.83;71.77;99563.69;4883265;29;20439;-68
2022/05/04 00:15:55;;;;;;;;;;;;;;;14.84;71.87;99562.78;4883548;29;20368;-69
2022/05/04 00:18:26;;;;;;;;;;;;;;;14.81;71.69;99562.84;4883187;29;20374;-69
2022/05/04 00:20:55;;;;;;;;;;;;;;;14.77;71.66;99559.50;4883597;29;19924;-69
2022/05/04 00:23:24;;;;;;;;;;;;;;;14.70;71.71;99558.78;4883400;29;20267;-68
2022/05/04 00:25:52;;;;;;;;;;;;;;;14.64;72.01;99548.59;4883337;29;19996;-69
2022/05/04 00:28:21;;;;;;;;;;;;;;;14.66;72.25;99557.13;4883078;29;20022;-69
2022/05/04 00:30:50;;;;;;;;;;;;;;;14.68;71.83;99560.50;4883385;29;19927;-69
2022/05/04 00:33:20;;;;;;;;;;;;;;;14.71;72.18;99555.31;4883860;29;20359;-68
2022/05/04 00:35:48;;;;;;;;;;;;;;;14.72;71.94;99556.16;4883282;29;20353;-69
2022/05/04 00:38:17;;;;;;;;;;;;;;;14.70;71.72;99556.22;4882907;29;19987;-68
2022/05/04 00:40:45;;;;;;;;;;;;;;;14.65;71.52;99552.88;4882764;29;19980;-68
2022/05/04 00:43:21;;;;;;;;;;;;;;;14.64;72.02;99558.88;4883188;29;19953;-68
2022/05/04 00:45:50;;;;;;;;;;;;;;;14.64;71.68;99558.88;4882766;29;19963;-69
2022/05/04 00:48:20;;;;;;;;;;;;;;;14.63;71.68;99557.22;4883064;29;19931;-68
2022/05/04 00:50:49;;;;;;;;;;;;;;;14.62;72.22;99552.94;4883342;29;20022;-68
2022/05/04 00:53:19;;;;;;;;;;;;;;;14.63;71.90;99552.06;4882931;29;19952;-69
2022/05/04 00:55:47;;;;;;;;;;;;;;;14.62;72.50;99550.38;4882915;29;20298;-69
2022/05/04 01:00:55;;;;;;;;;;;;;;;14.36;73.54;99550.00;4882512;29;19924;-69
2022/05/04 01:03:25;;;;;;;;;;;;;;;14.30;74.80;99562.94;4882724;29;20286;-68
2022/05/04 01:05:54;;;;;;;;;;;;;;;14.23;75.21;99563.06;4881731;29;19947;-69
2022/05/04 01:08:23;;;;;;;;;;;;;;;14.12;75.55;99563.25;4882363;29;19923;-66
2022/05/04 01:10:54;;;;;;;;;;;;;;;14.06;75.40;99563.31;4882299;29;19949;-67
2022/05/04 01:13:23;;;;;;;;;;;;;;;14.08;75.64;99571.88;4881823;29;20042;-67
2022/05/04 01:15:52;;;;;;;;;;;;;;;14.14;75.96;99576.88;4882722;29;20323;-69
2022/05/04 01:18:20;;;;;;;;;;;;;;;14.20;75.69;99581.94;4882542;29;19980;-68
2022/05/04 01:20:53;;;;;;;;;;;;;;;14.24;76.16;99578.44;4882090;29;19979;-69
2022/05/04 01:23:35;;;;;;;;;;;;;;;14.25;75.83;99584.41;4881370;29;19923;-66
2022/05/04 01:26:05;;;;;;;;;;;;;;;14.19;75.55;99579.38;4865735;29;20331;-68
2022/05/04 01:28:34;;;;;;;;;;;;;;;14.17;75.81;99576.84;4882373;29;19923;-68
2022/05/04 01:31:02;;;;;;;;;;;;;;;14.23;75.16;99589.56;4881937;29;19931;-69
2022/05/04 01:33:34;;;;;;;;;;;;;;;14.29;75.45;99581.78;4881906;29;19923;-69
2022/05/04 01:36:03;;;;;;;;;;;;;;;14.22;75.07;99585.31;4882198;29;19970;-69
2022/05/04 01:38:42;;;;;;;;;;;;;;;14.23;75.02;99576.72;4881816;29;20378;-67
2022/05/04 01:43:53;;;;;;;;;;;;;;;14.20;74.93;99581.94;4881194;29;20014;-67
2022/05/04 01:46:22;;;;;;;;;;;;;;;14.16;74.99;99585.41;4865077;29;19972;-68
2022/05/04 01:48:51;;;;;;;;;;;;;;;14.16;75.01;99580.25;4881638;29;19962;-67
2022/05/04 01:51:19;;;;;;;;;;;;;;;14.05;75.11;99570.19;4881582;29;19928;-67
2022/05/04 01:53:50;;;;;;;;;;;;;;;13.95;75.63;99565.22;4881928;29;20030;-66
2022/05/04 01:56:18;;;;;;;;;;;;;;;13.93;76.21;99572.97;4882389;29;19928;-68
2022/05/04 01:58:47;;;;;;;;;;;;;;;13.99;76.33;99569.44;4881734;29;19923;-67
2022/05/04 02:01:16;;;;;;;;;;;;;;;14.02;76.68;99569.38;4881415;29;19931;-67
2022/05/04 02:03:45;;;;;;;;;;;;;;;13.98;76.93;99565.19;4881745;29;19927;-67
2022/05/04 02:06:14;;;;;;;;;;;;;;;13.98;76.71;99562.63;4881588;29;20374;-67
2022/05/04 02:08:43;;;;;;;;;;;;;;;14.02;76.46;99571.94;4881490;29;20299;-68
2022/05/04 02:11:13;;;;;;;;;;;;;;;14.00;76.89;99560.88;4880128;29;20294;-67
2022/05/04 02:13:45;;;;;;;;;;;;;;;14.05;77.00;99572.78;4881122;29;20359;-67
2022/05/04 02:16:14;;;;;;;;;;;;;;;14.11;76.93;99569.22;4881063;29;19924;-67
2022/05/04 02:18:42;;;;;;;;;;;;;;;14.09;76.96;99573.53;4880957;29;19930;-66
2022/05/04 02:21:14;;;;;;;;;;;;;;;14.05;77.12;99582.19;4881053;29;19979;-67
2022/05/04 02:23:43;;;;;;;;;;;;;;;14.06;76.97;99576.16;4881460;29;20014;-67
2022/05/04 02:26:13;;;;;;;;;;;;;;;14.04;77.28;99593.31;4881223;29;19979;-67
2022/05/04 02:28:50;;;;;;;;;;;;;;;13.98;77.53;99583.16;4881141;29;20346;-67
2022/05/04 02:31:28;;;;;;;;;;;;;;;13.97;77.42;99581.44;4881318;29;20026;-67
2022/05/04 02:33:59;;;;;;;;;;;;;;;13.86;77.31;99573.09;4880906;29;19928;-67
2022/05/04 02:39:06;;;;;;;;;;;;;;;13.71;77.49;99565.63;4881128;29;19927;-67
2022/05/04 02:41:36;;;;;;;;;;;;;;;13.81;77.87;99573.16;4880685;29;19923;-67
2022/05/04 02:44:05;;;;;;;;;;;;;;;13.90;77.83;99569.59;4881071;29;20030;-68
2022/05/04 02:46:34;;;;;;;;;;;;;;;13.93;77.57;99566.97;4880660;29;19924;-67
2022/05/04 02:49:02;;;;;;;;;;;;;;;13.87;77.50;99567.06;4880935;29;19959;-67
2022/05/04 02:51:31;;;;;;;;;;;;;;;13.76;77.70;99563.81;4880556;29;19997;-67
2022/05/04 02:54:00;;;;;;;;;;;;;;;13.69;77.07;99572.47;4880528;29;19963;-68
2022/05/04 02:56:28;;;;;;;;;;;;;;;13.67;77.29;99571.66;4880804;29;19932;-68
2022/05/04 02:58:59;;;;;;;;;;;;;;;13.66;77.45;99567.41;4880707;29;20018;-67
2022/05/04 03:04:09;;;;;;;;;;;;;;;13.69;77.62;99567.34;4881068;29;19928;-68
2022/05/04 03:06:39;;;;;;;;;;;;;;;13.68;77.40;99570.78;4879219;29;19924;-67
2022/05/04 03:09:08;;;;;;;;;;;;;;;13.67;77.65;99571.66;4879278;29;19923;-68
2022/05/04 03:14:20;;;;;;;;;;;;;;;13.65;77.33;99584.53;4880080;29;19931;-68
2022/05/04 03:16:49;;;;;;;;;;;;;;;13.68;77.58;99581.03;4880264;29;19931;-68
2022/05/04 03:19:17;;;;;;;;;;;;;;;13.74;77.62;99586.09;4880840;29;19924;-68
2022/05/04 03:21:57;;;;;;;;;;;;;;;13.74;77.71;99583.53;4880070;29;19930;-68
2022/05/04 03:24:26;;;;;;;;;;;;;;;13.76;77.89;99584.34;4880646;29;19923;-69
2022/05/04 03:26:54;;;;;;;;;;;;;;;13.75;77.84;99590.38;4880457;29;20315;-69
2022/05/04 03:29:24;;;;;;;;;;;;;;;13.72;78.38;99588.69;4879610;29;19930;-68
2022/05/04 03:31:53;;;;;;;;;;;;;;;13.68;78.54;99586.16;4880679;29;19924;-68
2022/05/04 03:34:22;;;;;;;;;;;;;;;13.70;78.13;99575.00;4880039;29;19924;-68
2022/05/04 03:36:50;;;;;;;;;;;;;;;13.71;78.54;99581.00;4880331;29;20027;-68
2022/05/04 03:39:19;;;;;;;;;;;;;;;13.70;78.01;99585.28;4880012;29;20003;-69
2022/05/04 03:41:49;;;;;;;;;;;;;;;13.72;78.28;99577.59;4879901;29;20374;-68
2022/05/04 03:44:17;;;;;;;;;;;;;;;13.73;78.26;99579.25;4880355;29;20394;-68
2022/05/04 03:46:48;;;;;;;;;;;;;;;13.75;78.74;99577.53;4880242;29;20290;-68
2022/05/04 03:49:18;;;;;;;;;;;;;;;13.75;78.30;99588.63;4879985;29;19930;-67
2022/05/04 03:51:47;;;;;;;;;;;;;;;13.76;78.46;99590.34;4880201;29;19928;-68
2022/05/04 03:54:18;;;;;;;;;;;;;;;13.74;78.40;99584.38;4880272;29;19972;-69
2022/05/04 03:56:47;;;;;;;;;;;;;;;13.75;78.48;99593.75;4880206;29;20443;-69
2022/05/04 03:59:15;;;;;;;;;;;;;;;13.71;78.20;99591.25;4879868;29;19931;-69
2022/05/04 04:01:44;;;;;;;;;;;;;;;13.71;78.50;99592.13;4879865;29;20022;-68
2022/05/04 04:04:28;;;;;;;;;;;;;;;13.71;78.39;99607.50;4879840;29;19954;-68
2022/05/04 04:06:58;;;;;;;;;;;;;;;13.72;78.35;99598.94;4879764;29;19934;-68
2022/05/04 04:09:30;;;;;;;;;;;;;;;13.73;78.46;99604.91;4879918;29;19975;-69
2022/05/04 04:12:00;;;;;;;;;;;;;;;13.71;78.49;99609.22;4879787;29;19972;-69
2022/05/04 04:14:29;;;;;;;;;;;;;;;13.72;78.22;99613.50;4879709;29;20010;-68
2022/05/04 04:16:57;;;;;;;;;;;;;;;13.71;78.41;99622.03;4879743;29;19924;-69
2022/05/04 04:19:26;;;;;;;;;;;;;;;13.74;78.40;99616.88;4880043;29;20269;-68
2022/05/04 04:21:54;;;;;;;;;;;;;;;13.76;78.13;99621.13;4879857;29;19923;-68
2022/05/04 04:24:24;;;;;;;;;;;;;;;13.76;78.13;99615.97;4879588;29;19939;-69
2022/05/04 04:26:53;;;;;;;;;;;;;;;13.77;77.98;99627.09;4879679;29;19931;-69
2022/05/04 04:29:24;;;;;;;;;;;;;;;13.77;77.95;99633.06;4879608;29;19923;-68
2022/05/04 04:31:53;;;;;;;;;;;;;;;13.81;77.94;99636.44;4879619;29;19944;-68
2022/05/04 04:34:22;;;;;;;;;;;;;;;13.81;78.12;99634.72;4879647;29;20378;-69
2022/05/04 04:36:50;;;;;;;;;;;;;;;13.82;78.10;99643.28;4879856;29;20285;-68
2022/05/04 04:39:19;;;;;;;;;;;;;;;13.75;77.49;99644.22;4879918;29;19959;-68
2022/05/04 04:41:50;;;;;;;;;;;;;;;13.64;77.39;99640.94;4882402;29;19924;-67
2022/05/04 04:44:18;;;;;;;;;;;;;;;13.58;77.54;99649.56;4883070;29;20323;-67
2022/05/04 04:46:47;;;;;;;;;;;;;;;13.56;77.33;99653.88;4883042;29;20335;-68
2022/05/04 04:49:16;;;;;;;;;;;;;;;13.58;77.28;99656.44;4883014;29;20375;-68
2022/05/04 04:51:53;;;;;;;;;;;;;;;13.58;76.96;99657.25;4882904;29;20370;-67
2022/05/04 04:54:22;;;;;;;;;;;;;;;13.60;76.98;99655.56;4882671;29;19985;-69
2022/05/04 04:56:52;;;;;;;;;;;;;;;13.65;76.96;99660.63;4882553;29;20417;-68
2022/05/04 04:59:20;;;;;;;;;;;;;;;13.67;76.55;99656.31;4882872;29;19924;-69
2022/05/04 05:02:14;;;;;;;;;;;;;;;13.69;76.50;99657.13;4883048;29;19952;-68
2022/05/04 05:04:42;;;;;;;;;;;;;;;13.73;76.67;99651.94;4881219;29;19981;-69
2022/05/04 05:07:11;;;;;;;;;;;;;;;13.75;76.70;99660.44;4882382;29;19931;-69
2022/05/04 05:09:40;;;;;;;;;;;;;;;13.77;76.50;99652.75;4882353;29;19924;-68
2022/05/04 05:12:11;;;;;;;;;;;;;;;13.77;76.15;99666.41;4882302;29;19924;-68
2022/05/04 05:17:18;;;;;;;;;;;;;;;13.71;75.91;99658.81;4882556;29;19924;-69
2022/05/04 05:19:46;;;;;;;;;;;;;;;13.77;75.98;99663.00;4882186;29;20015;-69
2022/05/04 05:22:15;;;;;;;;;;;;;;;13.83;76.11;99657.78;4882312;29;20374;-69
2022/05/04 05:24:44;;;;;;;;;;;;;;;13.88;75.87;99661.13;4882656;29;19924;-69
2022/05/04 05:27:15;;;;;;;;;;;;;;;13.85;75.62;99658.59;4882051;29;19956;-69
2022/05/04 05:29:43;;;;;;;;;;;;;;;13.88;75.17;99661.13;4865635;29;20018;-69
2022/05/04 05:32:12;;;;;;;;;;;;;;;13.95;75.83;99665.31;4882245;29;19950;-69
2022/05/04 05:34:41;;;;;;;;;;;;;;;13.89;75.81;99673.94;4880717;29;19924;-69
2022/05/04 05:37:10;;;;;;;;;;;;;;;13.83;75.66;99670.59;4881866;29;19952;-69
2022/05/04 05:39:38;;;;;;;;;;;;;;;13.87;75.16;99679.94;4865446;29;19966;-69
2022/05/04 05:42:08;;;;;;;;;;;;;;;13.91;75.09;99673.94;4881784;29;19924;-69
2022/05/04 05:44:37;;;;;;;;;;;;;;;13.97;75.02;99684.09;4881657;29;19924;-68
2022/05/04 05:47:06;;;;;;;;;;;;;;;14.01;75.10;99683.19;4881655;29;19967;-69
2022/05/04 05:49:35;;;;;;;;;;;;;;;14.01;74.84;99672.94;4865219;29;19924;-67
2022/05/04 05:52:04;;;;;;;;;;;;;;;14.03;75.13;99681.44;4881036;29;20022;-69
2022/05/04 05:54:32;;;;;;;;;;;;;;;14.09;75.01;99681.34;4865219;29;19992;-69
2022/05/04 05:57:04;;;;;;;;;;;;;;;14.06;74.97;99681.38;4881876;29;20390;-69
2022/05/04 05:59:33;;;;;;;;;;;;;;;14.07;75.03;99677.94;4881780;29;19927;-69
2022/05/04 06:02:03;;;;;;;;;;;;;;;14.03;74.95;99676.31;4881690;29;20298;-69
2022/05/04 06:04:35;;;;;;;;;;;;;;;14.04;75.21;99672.84;4881371;29;19923;-69
2022/05/04 06:07:04;;;;;;;;;;;;;;;14.03;75.13;99672.03;4882005;29;19932;-69
2022/05/04 06:09:32;;;;;;;;;;;;;;;14.10;74.82;99680.47;4881225;29;19924;-69
2022/05/04 06:12:02;;;;;;;;;;;;;;;14.20;74.83;99679.47;4881599;29;19923;-69
2022/05/04 06:14:31;;;;;;;;;;;;;;;14.27;74.88;99695.63;4879924;29;20474;-69
2022/05/04 06:16:59;;;;;;;;;;;;;;;14.32;74.52;99681.03;4881104;29;19924;-69
2022/05/04 06:19:30;;;;;;;;;;;;;;;14.32;74.28;99689.59;4881077;29;19927;-69
2022/05/04 06:21:59;;;;;;;;;;;;;;;14.40;73.88;99698.00;4880928;29;19931;-69
2022/05/04 06:24:31;;;;;;;;;;;;;;;14.39;73.86;99696.31;4881047;29;19931;-69
2022/05/04 06:27:00;;;;;;;;;;;;;;;14.47;73.85;99697.03;4880995;29;19930;-69
2022/05/04 06:34:55;;;;;;;;;;;;;;;14.69;73.74;99703.50;4864551;29;19931;-69
2022/05/04 06:37:24;;;;;;;;;;;;;;;14.70;73.00;99702.66;4881205;29;20081;-69
2022/05/04 06:39:53;;;;;;;;;;;;;;;14.72;73.04;99706.03;4879654;29;20279;-68
2022/05/04 06:42:22;;;;;;;;;;;;;;;14.74;72.82;99708.56;4872663;29;20359;-69
2022/05/04 06:44:51;;;;;;;;;;;;;;;14.85;72.82;99705.81;4880594;29;20410;-69
2022/05/04 06:47:19;;;;;;;;;;;;;;;14.89;73.01;99699.75;4881271;29;20366;-69
2022/05/04 06:49:48;;;;;;;;;;;;;;;14.96;72.84;99698.75;4881670;29;20359;-69
2022/05/04 06:52:19;;;;;;;;;;;;;;;15.07;72.87;99702.00;4886041;29;20285;-69
2022/05/04 06:54:47;;;;;;;;;;;;;;;15.15;72.69;99700.13;4880926;29;19924;-68
2022/05/04 06:57:15;;;;;;;;;;;;;;;15.21;72.51;99712.88;4880310;29;19931;-69
2022/05/04 06:59:44;;;;;;;;;;;;;;;15.11;72.09;99713.91;4880466;29;19963;-68
2022/05/04 07:02:13;;;;;;;;;;;;;;;15.10;72.00;99712.19;4877634;29;19960;-69
2022/05/04 07:04:42;;;;;;;;;;;;;;;15.22;71.94;99717.97;4881049;29;20263;-68
2022/05/04 07:07:10;;;;;;;;;;;;;;;15.29;71.69;99714.41;4879252;29;20342;-69
2022/05/04 07:09:40;;;;;;;;;;;;;;;15.31;71.59;99716.94;4880283;29;20401;-68
2022/05/04 07:12:09;;;;;;;;;;;;;;;15.35;71.60;99713.44;4880553;29;20423;-68
2022/05/04 07:14:37;;;;;;;;;;;;;;;15.38;71.71;99715.94;4880097;29;20296;-68
2022/05/04 07:17:06;;;;;;;;;;;;;;;15.41;71.47;99718.47;4880567;29;20255;-68
2022/05/04 07:19:34;;;;;;;;;;;;;;;15.50;71.59;99722.63;4880435;29;20390;-68
2022/05/04 07:22:03;;;;;;;;;;;;;;;15.66;71.74;99721.44;4875173;29;20347;-68
2022/05/04 07:24:31;;;;;;;;;;;;;;;15.70;71.91;99720.47;4855893;29;19980;-68
2022/05/04 07:27:02;;;;;;;;;;;;;;;15.71;71.67;99720.47;4870527;29;19959;-68
2022/05/04 07:29:30;;;;;;;;;;;;;;;15.72;72.05;99718.72;4871296;29;19966;-68
2022/05/04 07:31:59;;;;;;;;;;;;;;;15.77;72.30;99722.88;4875341;29;20018;-69
2022/05/04 07:34:35;;;;;;;;;;;;;;;15.85;72.28;99721.00;4878942;29;19924;-68
2022/05/04 07:37:04;;;;;;;;;;;;;;;15.88;71.85;99725.25;4879916;29;19967;-69
2022/05/04 07:42:25;;;;;;;;;;;;;;;16.02;71.01;99724.06;4863330;29;20323;-68
2022/05/04 07:44:58;;;;;;;;;;;;;;;16.06;70.89;99725.69;4879039;29;20351;-68
2022/05/04 07:47:30;;;;;;;;;;;;;;;16.23;71.35;99732.19;4879919;29;19923;-70
2022/05/04 07:49:59;;;;;;;;;;;;;;;16.35;70.67;99731.91;4879195;29;20389;-69
2022/05/04 07:52:53;;;;;;;;;;;;;;;16.45;70.14;99738.53;4874278;29;19966;-68
2022/05/04 07:55:22;;;;;;;;;;;;;;;16.66;70.03;99738.06;4869390;29;19980;-68
2022/05/04 07:57:52;;;;;;;;;;;;;;;16.77;69.51;99741.22;4870150;29;19930;-69
2022/05/04 08:05:43;;;;;;;;;;;;;;;16.94;68.36;99751.13;4861276;29;19928;-68
2022/05/04 08:08:12;;;;;;;;;;;;;;;16.95;68.04;99756.22;4861544;29;19928;-67
2022/05/04 08:10:41;;;;;;;;;;;;;;;16.95;68.11;99758.81;4859987;29;20407;-69
2022/05/04 08:13:43;;;;;;;;;;;;;;;16.93;68.35;99765.75;4861208;29;19924;-68
2022/05/04 08:16:13;;;;;;;;;;;;;;;16.93;68.76;99773.47;4826896;29;19958;-69
2022/05/04 08:18:42;;;;;;;;;;;;;;;16.88;68.79;99770.16;4828143;29;19925;-68
2022/05/04 08:21:14;;;;;;;;;;;;;;;16.82;68.55;99775.44;4851071;29;20000;-68
2022/05/04 08:23:42;;;;;;;;;;;;;;;16.79;68.85;99780.69;4845763;29;19924;-69
2022/05/04 08:26:12;;;;;;;;;;;;;;;16.72;68.95;99784.31;4848695;29;19931;-69
2022/05/04 08:28:40;;;;;;;;;;;;;;;16.69;69.13;99785.22;4853483;29;20004;-68
2022/05/04 08:31:09;;;;;;;;;;;;;;;16.69;69.22;99794.69;4845708;29;19925;-68
2022/05/04 08:33:40;;;;;;;;;;;;;;;16.60;69.42;99794.91;4845949;29;19924;-69
2022/05/04 08:36:09;;;;;;;;;;;;;;;16.51;70.34;99807.94;4845835;29;19928;-68
2022/05/04 08:38:46;;;;;;;;;;;;;;;16.44;70.97;99814.13;4845584;29;19924;-67
2022/05/04 08:41:15;;;;;;;;;;;;;;;16.26;71.83;99809.38;4846268;29;19931;-69
2022/05/04 08:43:45;;;;;;;;;;;;;;;16.21;72.53;99806.06;4845676;29;19970;-68
2022/05/04 08:46:19;;;;;;;;;;;;;;;16.13;73.10;99813.09;4846053;29;20287;-69
2022/05/04 08:48:50;;;;;;;;;;;;;;;16.06;73.69;99818.38;4846346;29;20275;-67
2022/05/04 08:51:19;;;;;;;;;;;;;;;15.99;73.85;99816.81;4845579;29;20023;-66
2022/05/04 08:53:49;;;;;;;;;;;;;;;15.96;74.21;99816.03;4844827;29;20390;-67
2022/05/04 08:56:18;;;;;;;;;;;;;;;15.93;74.64;99811.78;4860467;29;19923;-68
2022/05/04 08:58:47;;;;;;;;;;;;;;;15.90;75.29;99811.00;4862328;29;19931;-67
2022/05/04 09:01:19;;;;;;;;;;;;;;;15.83;75.65;99805.16;4845496;29;19924;-68
2022/05/04 09:03:54;;;;;;;;;;;;;;;15.76;76.01;99803.56;4845385;29;20021;-67
2022/05/04 09:06:26;;;;;;;;;;;;;;;15.69;75.98;99807.13;4853817;29;20026;-67
2022/05/04 09:08:56;;;;;;;;;;;;;;;15.68;75.43;99812.31;4863740;29;19931;-67
2022/05/04 09:11:25;;;;;;;;;;;;;;;15.69;75.61;99801.16;4863842;29;19962;-67
2022/05/04 09:13:54;;;;;;;;;;;;;;;15.66;75.88;99796.06;4865833;29;20274;-66
2022/05/04 09:16:30;;;;;;;;;;;;;;;15.61;75.63;99787.56;4899757;29;20264;-67
2022/05/04 09:19:02;;;;;;;;;;;;;;;15.52;76.24;99783.47;4864287;29;19924;-66
2022/05/04 09:21:31;;;;;;;;;;;;;;;15.41;76.60;99795.63;4868702;29;19924;-66
2022/05/04 09:24:00;;;;;;;;;;;;;;;15.43;76.79;99784.44;4873410;29;19967;-67
2022/05/04 09:26:28;;;;;;;;;;;;;;;15.50;77.21;99785.19;4881187;29;19957;-65
2022/05/04 09:29:01;;;;;;;;;;;;;;;15.42;77.72;99782.75;4880974;29;19988;-67
2022/05/04 09:31:30;;;;;;;;;;;;;;;15.35;78.01;99793.19;4884719;29;19923;-65
2022/05/04 09:34:03;;;;;;;;;;;;;;;15.32;78.56;99790.66;4900370;29;20495;-66
2022/05/04 09:36:33;;;;;;;;;;;;;;;15.34;78.81;99788.91;4900944;29;19951;-65
2022/05/04 09:47:04;;;;;;;;;;;;;;;15.65;78.99;99795.19;4881310;29;20011;-67
2022/05/04 09:49:34;;;;;;;;;;;;;;;15.72;78.83;99794.19;4865478;29;20339;-67
2022/05/04 09:52:04;;;;;;;;;;;;;;;15.87;78.69;99791.31;4873882;29;19931;-67
2022/05/04 09:54:33;;;;;;;;;;;;;;;16.08;78.21;99785.72;4866230;29;20315;-65
2022/05/04 09:57:03;;;;;;;;;;;;;;;16.39;78.31;99774.72;4862945;29;19931;-66
2022/05/04 09:59:33;;;;;;;;;;;;;;;16.47;78.01;99772.84;4863323;29;19998;-66
2022/05/04 10:02:03;;;;;;;;;;;;;;;16.54;77.16;99774.41;4867231;29;19946;-66
2022/05/04 10:04:34;;;;;;;;;;;;;;;16.69;76.41;99768.91;4874172;29;19931;-65
2022/05/04 10:07:11;;;;;;;;;;;;;;;16.95;75.43;99760.53;4871816;29;19930;-65
2022/05/04 10:09:40;;;;;;;;;;;;;;;17.24;74.75;99760.63;4870666;29;19928;-68
2022/05/04 10:12:09;;;;;;;;;;;;;;;17.52;73.58;99753.00;4871543;29;19924;-66
2022/05/04 10:14:39;;;;;;;;;;;;;;;17.72;71.24;99741.25;4871943;29;19924;-68
2022/05/04 10:17:11;;;;;;;;;;;;;;;17.94;69.38;99746.63;4880365;29;19975;-66
2022/05/04 10:20:09;;;;;;;;;;;;;;;18.08;67.47;99747.06;4880956;29;19959;-66
2022/05/04 10:22:40;;;;;;;;;;;;;;;18.12;66.02;99740.91;4881046;29;19924;-66
2022/05/04 10:25:09;;;;;;;;;;;;;;;18.18;65.68;99745.91;4880210;29;19983;-67
2022/05/04 10:27:40;;;;;;;;;;;;;;;18.33;65.25;99742.00;4881252;29;19980;-66
2022/05/04 10:32:51;;;;;;;;;;;;;;;18.74;64.16;99747.56;4877382;29;20429;-68
2022/05/04 10:35:27;;;;;;;;;;;;;;;18.90;63.16;99749.66;4876060;29;19928;-67
2022/05/04 10:38:07;;;;;;;;;;;;;;;18.93;62.71;99746.97;4879250;29;19930;-66
2022/05/04 10:40:37;;;;;;;;;;;;;;;18.93;61.91;99746.97;4881089;29;20030;-65
2022/05/04 10:43:06;;;;;;;;;;;;;;;18.84;61.44;99742.09;4880405;29;19935;-66
2022/05/04 10:45:35;;;;;;;;;;;;;;;18.99;61.07;99736.41;4862859;29;19924;-65
2022/05/04 10:48:15;;;;;;;;;;;;;;;19.02;59.86;99736.31;4880251;29;19928;-66
2022/05/04 10:51:03;;;;;;;;;;;;;;;19.06;58.80;99730.13;4895197;29;20018;-65
2022/05/04 10:53:36;;;;;;;;;;;;;;;18.99;58.81;99731.22;4874175;29;20010;-66
2022/05/04 10:56:07;;;;;;;;;;;;;;;18.95;58.61;99729.66;4874425;29;19958;-64
2022/05/04 10:58:37;;;;;;;;;;;;;;;18.93;59.95;99727.09;4879182;29;19930;-66
2022/05/04 11:01:07;;;;;;;;;;;;;;;18.84;61.13;99727.41;4880509;29;20335;-64
2022/05/04 11:03:36;;;;;;;;;;;;;;;18.82;61.76;99723.19;4863172;29;20344;-67
2022/05/04 11:06:11;;;;;;;;;;;;;;;18.92;61.27;99716.81;4880040;29;19923;-68
2022/05/04 11:08:48;;;;;;;;;;;;;;;19.11;60.10;99717.88;4879831;29;19923;-68
2022/05/04 11:11:17;;;;;;;;;;;;;;;19.26;58.42;99723.38;4879353;29;19927;-69
2022/05/04 11:13:46;;;;;;;;;;;;;;;19.08;57.29;99720.56;4862494;29;19923;-68
2022/05/04 11:16:15;;;;;;;;;;;;;;;19.01;57.92;99716.50;4864586;29;20059;-67
2022/05/04 11:18:44;;;;;;;;;;;;;;;18.96;57.87;99716.66;4875883;29;19979;-67
2022/05/04 11:21:15;;;;;;;;;;;;;;;19.04;58.48;99718.97;4875398;29;19963;-67
2022/05/04 11:23:46;;;;;;;;;;;;;;;19.30;58.97;99712.00;4879904;29;19967;-69
2022/05/04 11:26:19;;;;;;;;;;;;;;;19.31;58.11;99703.34;4887301;29;20018;-67
2022/05/04 11:28:51;;;;;;;;;;;;;;;19.50;58.09;99706.16;4898805;29;20382;-67
2022/05/04 11:31:20;;;;;;;;;;;;;;;19.70;57.45;99701.06;4899455;29;20362;-67
2022/05/04 11:33:52;;;;;;;;;;;;;;;19.70;56.98;99698.47;4898639;29;19950;-67
2022/05/04 11:36:25;;;;;;;;;;;;;;;19.63;56.22;99699.59;4897438;29;19923;-65
2022/05/04 11:38:54;;;;;;;;;;;;;;;19.75;55.74;99693.09;4880700;29;19930;-68
2022/05/04 11:41:22;;;;;;;;;;;;;;;19.90;55.02;99683.03;4879959;29;19928;-69
2022/05/04 11:43:51;;;;;;;;;;;;;;;19.99;55.70;99690.44;4884310;29;19992;-67
2022/05/04 11:46:21;;;;;;;;;;;;;;;19.97;55.23;99676.69;4879775;29;19930;-66
2022/05/04 11:48:50;;;;;;;;;;;;;;;20.08;56.31;99682.28;4875979;29;19932;-68
2022/05/04 11:51:29;;;;;;;;;;;;;;;20.22;55.97;99678.31;4877965;29;19938;-68
2022/05/04 11:53:57;;;;;;;;;;;;;;;20.30;54.59;99676.31;4868631;29;19928;-68
2022/05/04 11:56:25;;;;;;;;;;;;;;;20.46;54.46;99667.84;4883680;29;19923;-67
2022/05/04 11:58:54;;;;;;;;;;;;;;;20.56;54.68;99669.13;4883570;29;19974;-69
2022/05/04 12:01:23;;;;;;;;;;;;;;;20.73;54.62;99672.78;4883873;29;19923;-67
2022/05/04 12:03:52;;;;;;;;;;;;;;;20.61;53.31;99666.38;4880606;29;19924;-68
2022/05/04 12:06:21;;;;;;;;;;;;;;;20.61;53.56;99661.19;4884225;29;20289;-67
2022/05/04 12:08:51;;;;;;;;;;;;;;;20.59;53.32;99665.56;4879661;29;19948;-68
2022/05/04 12:11:20;;;;;;;;;;;;;;;20.64;52.86;99655.84;4883290;29;19924;-68
2022/05/04 12:13:49;;;;;;;;;;;;;;;20.76;52.65;99657.94;4882277;29;19931;-66
2022/05/04 12:16:21;;;;;;;;;;;;;;;20.85;52.04;99654.94;4883332;29;19924;-66
2022/05/04 12:18:50;;;;;;;;;;;;;;;20.80;50.55;99656.06;4883313;29;19962;-68
2022/05/04 12:21:19;;;;;;;;;;;;;;;20.72;49.85;99653.78;4881906;29;19997;-68
2022/05/04 12:23:50;;;;;;;;;;;;;;;20.83;49.47;99648.16;4883176;29;19931;-68
2022/05/04 12:26:20;;;;;;;;;;;;;;;20.91;49.60;99648.66;4882468;29;20438;-66
2022/05/04 12:34:18;;;;;;;;;;;;;;;21.18;52.06;99635.34;4882493;29;19998;-70
2022/05/04 12:36:47;;;;;;;;;;;;;;;21.25;52.39;99638.50;4882177;29;20018;-67
2022/05/04 12:39:16;;;;;;;;;;;;;;;21.28;51.75;99626.22;4882793;29;19923;-69
2022/05/04 12:41:46;;;;;;;;;;;;;;;21.33;51.40;99626.84;4883128;29;19924;-66
2022/05/04 12:44:15;;;;;;;;;;;;;;;21.32;51.84;99629.53;4883477;29;20023;-68
2022/05/04 12:46:51;;;;;;;;;;;;;;;21.43;51.18;99621.25;4882908;29;19924;-68
2022/05/04 12:49:20;;;;;;;;;;;;;;;21.35;49.31;99617.22;4882818;29;19931;-68
2022/05/04 12:51:49;;;;;;;;;;;;;;;21.19;48.38;99613.66;4882865;29;19939;-68
2022/05/04 12:54:18;;;;;;;;;;;;;;;21.18;48.74;99604.19;4882648;29;20022;-68
2022/05/04 12:56:48;;;;;;;;;;;;;;;21.36;49.25;99611.13;4882479;29;19975;-67
2022/05/04 12:59:17;;;;;;;;;;;;;;;21.31;48.23;99607.91;4882603;29;19959;-68
2022/05/04 13:01:46;;;;;;;;;;;;;;;21.32;47.19;99612.19;4881299;29;19932;-67
2022/05/04 13:04:17;;;;;;;;;;;;;;;21.17;46.39;99610.28;4882636;29;19932;-68
2022/05/04 13:06:46;;;;;;;;;;;;;;;21.27;46.64;99605.53;4882772;29;19924;-69
2022/05/04 13:09:15;;;;;;;;;;;;;;;21.38;47.52;99602.44;4881432;29;19948;-68
2022/05/04 13:11:44;;;;;;;;;;;;;;;21.33;47.40;99605.25;4882269;29;19931;-68
2022/05/04 13:14:14;;;;;;;;;;;;;;;21.42;47.01;99601.38;4882321;29;20388;-68
2022/05/04 13:16:44;;;;;;;;;;;;;;;21.43;47.02;99597.88;4882253;29;19923;-68
2022/05/04 13:19:13;;;;;;;;;;;;;;;21.51;46.97;99598.34;4882447;29;19939;-68
2022/05/04 13:21:41;;;;;;;;;;;;;;;21.53;46.62;99591.31;4882040;29;19966;-68
2022/05/04 13:24:11;;;;;;;;;;;;;;;21.62;46.54;99596.94;4881476;29;19950;-69
2022/05/04 13:26:39;;;;;;;;;;;;;;;21.64;46.04;99595.13;4881842;29;20289;-68
2022/05/04 13:29:08;;;;;;;;;;;;;;;21.80;46.59;99585.69;4880729;29;19923;-69
2022/05/04 13:31:38;;;;;;;;;;;;;;;21.94;47.96;99588.50;4859444;29;20389;-69
2022/05/04 13:34:07;;;;;;;;;;;;;;;22.04;47.52;99583.69;4878514;29;19979;-68
2022/05/04 13:36:35;;;;;;;;;;;;;;;22.03;46.48;99587.19;4882188;29;20023;-68
2022/05/04 13:39:04;;;;;;;;;;;;;;;21.99;45.86;99583.06;4882014;29;19962;-68
2022/05/04 13:41:33;;;;;;;;;;;;;;;22.20;46.98;99587.19;4881753;29;20026;-69
2022/05/04 13:44:02;;;;;;;;;;;;;;;22.40;48.22;99581.88;4882000;29;20470;-69
2022/05/04 13:46:31;;;;;;;;;;;;;;;22.56;47.86;99574.94;4882063;29;20294;-68
2022/05/04 13:49:01;;;;;;;;;;;;;;;22.57;46.47;99579.25;4881607;29;19927;-69